Main page
METAR-TAF:

METAR-TAF

Airports :

Cairo International Airport

Cairo, Egypt

latitude: 30-08N, longitude: 031-24E, elevation: 64 m

Current weather observation

The report was made 10 minutes ago, at 21:00 UTC
Wind 11 kt from the South/Southeast
Temperature 18°C
Humidity 42%
Pressure 1013 hPa
Visibility 10 km or more
no clouds below 1500 m and no cumulonimbus

METAR: HECA 102100Z 15011KT CAVOK 18/05 Q1013 NOSIG

Time: 23:10 (21:10 UTC)

Forecast

The report was made 4 hours and 10 minutes ago, at 17:00 UTC
Forecast valid from 10 at 18 UTC to 11 at 24 UTC
Wind 10 kt from the South/Southwest
Visibility: 6000 m
Scattered clouds at a height of 2500 ft
Temporary
from 11 at 00 UTC to 11 at 07 UTC
Wind 3 kt from variable directions
Visibility: 4000 m
haze
Probability 30% :
Temporary
from 11 at 03 UTC to 11 at 07 UTC
Visibility: 2000 m

TAF: HECA 101700Z 1018/1124 21010KT 6000 SCT025 TEMPO 1100/1107 VRB03KT 4000 HZ NSC PROB30 TEMPO 1103/1107 2000

Weather observations and forecasts of more than 4000 airports (METAR and TAF reports).

The available stations are represented by yellow and red dots on the map.

Hover mouse over dot to see the name of the station.

Then click to see weather observations and forecasts.

To change the map : click on the green buttons with a black cross to zoom in, on the green button with a dash to zoom out, or on the green arrows for adjacent maps.


METAR-TAF: